sensor_id;sensor_type;location;lat;lon;timestamp;P1;P2;P0
49686;PMS5003;36064;38.180;-122.272;2023-06-10T00:00:00;0.4;0.4;
49686;PMS5003;36064;38.180;-122.272;2023-06-10T00:05:00;0.4;0.4;
49686;PMS5003;36064;38.180;-122.272;2023-06-10T00:10:00;0.4;0.4;
49686;PMS5003;36064;38.180;-122.272;2023-06-10T00:15:00;0.0;0.4;
49686;PMS5003;36064;38.180;-122.272;2023-06-10T00:20:00;0.4;0.4;
49686;PMS5003;36064;38.180;-122.272;2023-06-10T00:25:00;0.0;0.4;
49686;PMS5003;36064;38.180;-122.272;2023-06-10T00:30:01;0.4;0.4;
49686;PMS5003;36064;38.180;-122.272;2023-06-10T00:35:00;0.4;0.4;
49686;PMS5003;36064;38.180;-122.272;2023-06-10T00:40:00;0.4;0.4;
49686;PMS5003;36064;38.180;-122.272;2023-06-10T00:45:00;0.4;0.4;
49686;PMS5003;36064;38.180;-122.272;2023-06-10T00:50:01;0.0;0.4;
49686;PMS5003;36064;38.180;-122.272;2023-06-10T00:55:00;0.4;0.4;
49686;PMS5003;36064;38.180;-122.272;2023-06-10T01:00:00;0.4;0.4;
49686;PMS5003;36064;38.180;-122.272;2023-06-10T01:05:00;10.4;10.0;
49686;PMS5003;36064;38.180;-122.272;2023-06-10T01:10:02;10.4;10.0;
49686;PMS5003;36064;38.180;-122.272;2023-06-10T01:15:00;10.4;10.0;
49686;PMS5003;36064;38.180;-122.272;2023-06-10T01:20:00;10.4;10.0;
49686;PMS5003;36064;38.180;-122.272;2023-06-10T01:25:00;10.4;10.0;
49686;PMS5003;36064;38.180;-122.272;2023-06-10T01:30:02;10.4;10.0;
49686;PMS5003;36064;38.180;-122.272;2023-06-10T01:35:01;10.4;10.0;
49686;PMS5003;36064;38.180;-122.272;2023-06-10T01:40:00;10.4;10.0;
49686;PMS5003;36064;38.180;-122.272;2023-06-10T01:45:01;1.2;1.2;
49686;PMS5003;36064;38.180;-122.272;2023-06-10T01:50:00;1.2;1.2;
49686;PMS5003;36064;38.180;-122.272;2023-06-10T01:55:00;1.2;1.2;
49686;PMS5003;36064;38.180;-122.272;2023-06-10T02:00:00;1.2;1.2;
49686;PMS5003;36064;38.180;-122.272;2023-06-10T02:05:00;1.2;1.2;
49686;PMS5003;36064;38.180;-122.272;2023-06-10T02:10:00;1.2;1.2;
49686;PMS5003;36064;38.180;-122.272;2023-06-10T02:15:01;1.2;1.2;
49686;PMS5003;36064;38.180;-122.272;2023-06-10T02:20:00;1.2;1.2;
49686;PMS5003;36064;38.180;-122.272;2023-06-10T02:25:00;1.2;1.2;
49686;PMS5003;36064;38.180;-122.272;2023-06-10T02:30:00;1.2;1.2;
49686;PMS5003;36064;38.180;-122.272;2023-06-10T02:35:00;1.2;1.2;
49686;PMS5003;36064;38.180;-122.272;2023-06-10T02:40:00;0.0;1.2;
49686;PMS5003;36064;38.180;-122.272;2023-06-10T02:45:00;0.4;1.2;
49686;PMS5003;36064;38.180;-122.272;2023-06-10T02:50:00;0.4;1.2;
49686;PMS5003;36064;38.180;-122.272;2023-06-10T02:55:00;0.4;1.2;
49686;PMS5003;36064;38.180;-122.272;2023-06-10T03:00:00;0.4;1.2;
49686;PMS5003;36064;38.180;-122.272;2023-06-10T03:05:00;0.4;1.2;
49686;PMS5003;36064;38.180;-122.272;2023-06-10T03:10:00;0.4;1.2;
49686;PMS5003;36064;38.180;-122.272;2023-06-10T03:15:00;0.4;1.2;
49686;PMS5003;36064;38.180;-122.272;2023-06-10T03:20:00;0.4;1.2;
49686;PMS5003;36064;38.180;-122.272;2023-06-10T03:25:00;0.4;1.2;
49686;PMS5003;36064;38.180;-122.272;2023-06-10T03:30:00;0.4;1.2;
49686;PMS5003;36064;38.180;-122.272;2023-06-10T03:35:00;0.4;1.2;
49686;PMS5003;36064;38.180;-122.272;2023-06-10T03:40:00;0.4;1.2;
49686;PMS5003;36064;38.180;-122.272;2023-06-10T03:45:01;0.4;1.2;
49686;PMS5003;36064;38.180;-122.272;2023-06-10T03:50:00;0.4;1.2;
49686;PMS5003;36064;38.180;-122.272;2023-06-10T03:55:00;0.4;1.2;
49686;PMS5003;36064;38.180;-122.272;2023-06-10T04:00:00;0.4;1.2;
49686;PMS5003;36064;38.180;-122.272;2023-06-10T04:05:00;0.8;0.8;
49686;PMS5003;36064;38.180;-122.272;2023-06-10T04:10:00;0.6;0.6;
49686;PMS5003;36064;38.180;-122.272;2023-06-10T04:15:00;1.4;0.6;
49686;PMS5003;36064;38.180;-122.272;2023-06-10T04:20:00;1.4;0.6;
49686;PMS5003;36064;38.180;-122.272;2023-06-10T04:25:00;1.4;0.6;
49686;PMS5003;36064;38.180;-122.272;2023-06-10T04:30:00;0.0;0.0;
49686;PMS5003;36064;38.180;-122.272;2023-06-10T04:35:00;0.4;0.4;
49686;PMS5003;36064;38.180;-122.272;2023-06-10T04:40:00;0.4;0.4;
49686;PMS5003;36064;38.180;-122.272;2023-06-10T04:45:00;0.4;0.4;
49686;PMS5003;36064;38.180;-122.272;2023-06-10T04:50:00;0.2;0.4;
49686;PMS5003;36064;38.180;-122.272;2023-06-10T04:55:00;0.6;0.4;
49686;PMS5003;36064;38.180;-122.272;2023-06-10T05:00:00;0.6;0.4;
49686;PMS5003;36064;38.180;-122.272;2023-06-10T05:05:00;0.4;0.4;
49686;PMS5003;36064;38.180;-122.272;2023-06-10T05:10:00;1.2;0.4;
49686;PMS5003;36064;38.180;-122.272;2023-06-10T05:15:00;1.2;0.4;
49686;PMS5003;36064;38.180;-122.272;2023-06-10T05:20:00;0.0;0.0;
49686;PMS5003;36064;38.180;-122.272;2023-06-10T05:25:00;0.8;0.4;
49686;PMS5003;36064;38.180;-122.272;2023-06-10T05:30:00;0.0;0.0;
49686;PMS5003;36064;38.180;-122.272;2023-06-10T05:35:00;0.2;0.2;
49686;PMS5003;36064;38.180;-122.272;2023-06-10T05:40:00;0.4;0.4;
49686;PMS5003;36064;38.180;-122.272;2023-06-10T05:45:00;1.2;1.2;
49686;PMS5003;36064;38.180;-122.272;2023-06-10T05:50:00;1.2;0.4;
49686;PMS5003;36064;38.180;-122.272;2023-06-10T05:55:00;0.8;0.8;
49686;PMS5003;36064;38.180;-122.272;2023-06-10T06:00:00;0.2;0.8;
49686;PMS5003;36064;38.180;-122.272;2023-06-10T06:05:00;0.4;0.8;
49686;PMS5003;36064;38.180;-122.272;2023-06-10T06:10:00;0.4;0.8;
49686;PMS5003;36064;38.180;-122.272;2023-06-10T06:15:00;0.0;0.0;
49686;PMS5003;36064;38.180;-122.272;2023-06-10T06:20:01;0.4;0.4;
49686;PMS5003;36064;38.180;-122.272;2023-06-10T06:25:00;1.0;0.6;
49686;PMS5003;36064;38.180;-122.272;2023-06-10T06:30:00;0.8;0.0;
49686;PMS5003;36064;38.180;-122.272;2023-06-10T06:35:00;0.6;0.6;
49686;PMS5003;36064;38.180;-122.272;2023-06-10T06:40:00;0.4;0.4;
49686;PMS5003;36064;38.180;-122.272;2023-06-10T06:45:00;0.6;0.6;
49686;PMS5003;36064;38.180;-122.272;2023-06-10T06:50:00;1.0;0.6;
49686;PMS5003;36064;38.180;-122.272;2023-06-10T06:55:00;1.0;0.6;
49686;PMS5003;36064;38.180;-122.272;2023-06-10T07:00:00;1.0;0.6;
49686;PMS5003;36064;38.180;-122.272;2023-06-10T07:05:00;1.4;1.4;
49686;PMS5003;36064;38.180;-122.272;2023-06-10T07:10:00;1.0;1.0;
49686;PMS5003;36064;38.180;-122.272;2023-06-10T07:15:00;0.8;0.8;
49686;PMS5003;36064;38.180;-122.272;2023-06-10T07:20:00;1.4;1.2;
49686;PMS5003;36064;38.180;-122.272;2023-06-10T07:25:00;0.8;0.6;
49686;PMS5003;36064;38.180;-122.272;2023-06-10T07:30:00;1.0;0.6;
49686;PMS5003;36064;38.180;-122.272;2023-06-10T07:35:00;1.4;1.4;
49686;PMS5003;36064;38.180;-122.272;2023-06-10T07:40:00;1.0;1.0;
49686;PMS5003;36064;38.180;-122.272;2023-06-10T07:45:00;1.4;1.4;
49686;PMS5003;36064;38.180;-122.272;2023-06-10T07:50:01;1.4;1.4;
49686;PMS5003;36064;38.180;-122.272;2023-06-10T07:55:00;1.4;1.4;
49686;PMS5003;36064;38.180;-122.272;2023-06-10T08:00:00;1.4;1.4;
49686;PMS5003;36064;38.180;-122.272;2023-06-10T08:05:00;1.2;1.2;
49686;PMS5003;36064;38.180;-122.272;2023-06-10T08:10:00;1.0;1.2;
49686;PMS5003;36064;38.180;-122.272;2023-06-10T08:15:01;1.4;1.0;
49686;PMS5003;36064;38.180;-122.272;2023-06-10T08:20:00;1.4;0.6;
49686;PMS5003;36064;38.180;-122.272;2023-06-10T08:25:00;1.0;0.8;
49686;PMS5003;36064;38.180;-122.272;2023-06-10T08:30:00;1.6;1.6;
49686;PMS5003;36064;38.180;-122.272;2023-06-10T08:35:00;1.2;0.8;
49686;PMS5003;36064;38.180;-122.272;2023-06-10T08:40:00;1.2;0.8;
49686;PMS5003;36064;38.180;-122.272;2023-06-10T08:45:01;1.8;1.4;
49686;PMS5003;36064;38.180;-122.272;2023-06-10T08:50:01;1.8;1.0;
49686;PMS5003;36064;38.180;-122.272;2023-06-10T08:55:03;1.0;0.8;
49686;PMS5003;36064;38.180;-122.272;2023-06-10T09:00:00;2.2;1.4;
49686;PMS5003;36064;38.180;-122.272;2023-06-10T09:05:00;1.0;1.0;
49686;PMS5003;36064;38.180;-122.272;2023-06-10T09:10:00;1.6;1.0;
49686;PMS5003;36064;38.180;-122.272;2023-06-10T09:15:01;3.4;2.0;
49686;PMS5003;36064;38.180;-122.272;2023-06-10T09:20:00;2.4;2.0;
49686;PMS5003;36064;38.180;-122.272;2023-06-10T09:25:04;2.4;2.4;
49686;PMS5003;36064;38.180;-122.272;2023-06-10T09:30:00;2.4;2.4;
49686;PMS5003;36064;38.180;-122.272;2023-06-10T09:35:00;1.0;1.0;
49686;PMS5003;36064;38.180;-122.272;2023-06-10T09:40:01;1.8;1.8;
49686;PMS5003;36064;38.180;-122.272;2023-06-10T09:45:00;1.8;1.4;
49686;PMS5003;36064;38.180;-122.272;2023-06-10T09:50:00;2.4;2.2;
49686;PMS5003;36064;38.180;-122.272;2023-06-10T09:55:01;2.0;2.0;
49686;PMS5003;36064;38.180;-122.272;2023-06-10T10:00:04;2.6;2.2;
49686;PMS5003;36064;38.180;-122.272;2023-06-10T10:05:02;1.8;1.0;
49686;PMS5003;36064;38.180;-122.272;2023-06-10T10:10:00;1.0;0.6;
49686;PMS5003;36064;38.180;-122.272;2023-06-10T10:15:00;0.8;0.8;
49686;PMS5003;36064;38.180;-122.272;2023-06-10T10:20:02;0.8;0.8;
49686;PMS5003;36064;38.180;-122.272;2023-06-10T10:25:01;3.8;3.8;
49686;PMS5003;36064;38.180;-122.272;2023-06-10T10:30:00;6.2;6.2;
49686;PMS5003;36064;38.180;-122.272;2023-06-10T10:35:03;6.2;6.2;
49686;PMS5003;36064;38.180;-122.272;2023-06-10T10:40:00;4.8;4.4;
49686;PMS5003;36064;38.180;-122.272;2023-06-10T10:45:00;1.8;1.8;
49686;PMS5003;36064;38.180;-122.272;2023-06-10T10:50:00;2.0;2.0;
49686;PMS5003;36064;38.180;-122.272;2023-06-10T10:55:00;1.8;1.8;
49686;PMS5003;36064;38.180;-122.272;2023-06-10T11:00:00;3.0;3.0;
49686;PMS5003;36064;38.180;-122.272;2023-06-10T11:05:01;4.6;4.6;
49686;PMS5003;36064;38.180;-122.272;2023-06-10T11:10:01;4.4;3.6;
49686;PMS5003;36064;38.180;-122.272;2023-06-10T11:15:00;3.2;2.8;
49686;PMS5003;36064;38.180;-122.272;2023-06-10T11:20:00;4.0;2.8;
49686;PMS5003;36064;38.180;-122.272;2023-06-10T11:25:00;3.0;2.4;
49686;PMS5003;36064;38.180;-122.272;2023-06-10T11:35:02;5.8;5.0;
49686;PMS5003;36064;38.180;-122.272;2023-06-10T11:40:00;4.4;4.4;
49686;PMS5003;36064;38.180;-122.272;2023-06-10T11:45:00;5.8;4.8;
49686;PMS5003;36064;38.180;-122.272;2023-06-10T11:50:00;5.0;3.8;
49686;PMS5003;36064;38.180;-122.272;2023-06-10T11:55:00;1.2;1.2;
49686;PMS5003;36064;38.180;-122.272;2023-06-10T12:00:04;2.6;2.2;
49686;PMS5003;36064;38.180;-122.272;2023-06-10T12:05:09;2.4;2.4;
49686;PMS5003;36064;38.180;-122.272;2023-06-10T12:10:00;3.4;3.2;
49686;PMS5003;36064;38.180;-122.272;2023-06-10T12:15:00;3.2;2.4;
49686;PMS5003;36064;38.180;-122.272;2023-06-10T12:20:01;4.4;3.2;
49686;PMS5003;36064;38.180;-122.272;2023-06-10T12:25:01;3.2;3.2;
49686;PMS5003;36064;38.180;-122.272;2023-06-10T12:30:01;2.2;2.8;
49686;PMS5003;36064;38.180;-122.272;2023-06-10T12:35:02;5.4;3.6;
49686;PMS5003;36064;38.180;-122.272;2023-06-10T12:40:00;2.8;2.6;
49686;PMS5003;36064;38.180;-122.272;2023-06-10T12:45:00;2.0;1.6;
49686;PMS5003;36064;38.180;-122.272;2023-06-10T12:50:01;2.6;1.8;
49686;PMS5003;36064;38.180;-122.272;2023-06-10T12:55:00;3.8;2.6;
49686;PMS5003;36064;38.180;-122.272;2023-06-10T13:00:01;2.2;2.2;
49686;PMS5003;36064;38.180;-122.272;2023-06-10T13:05:00;2.6;2.6;
49686;PMS5003;36064;38.180;-122.272;2023-06-10T13:10:00;4.0;3.6;
49686;PMS5003;36064;38.180;-122.272;2023-06-10T13:15:00;3.4;2.4;
49686;PMS5003;36064;38.180;-122.272;2023-06-10T13:20:00;2.0;2.0;
49686;PMS5003;36064;38.180;-122.272;2023-06-10T13:25:00;2.2;2.2;
49686;PMS5003;36064;38.180;-122.272;2023-06-10T13:30:00;2.2;2.2;
49686;PMS5003;36064;38.180;-122.272;2023-06-10T13:35:01;2.0;2.0;
49686;PMS5003;36064;38.180;-122.272;2023-06-10T13:40:00;1.8;1.8;
49686;PMS5003;36064;38.180;-122.272;2023-06-10T13:45:00;2.0;2.0;
49686;PMS5003;36064;38.180;-122.272;2023-06-10T13:50:00;4.4;3.2;
49686;PMS5003;36064;38.180;-122.272;2023-06-10T13:55:00;1.8;1.6;
49686;PMS5003;36064;38.180;-122.272;2023-06-10T14:00:00;1.8;1.8;
49686;PMS5003;36064;38.180;-122.272;2023-06-10T14:05:00;3.0;2.6;
49686;PMS5003;36064;38.180;-122.272;2023-06-10T14:10:00;3.6;2.6;
49686;PMS5003;36064;38.180;-122.272;2023-06-10T14:15:00;2.8;2.2;
49686;PMS5003;36064;38.180;-122.272;2023-06-10T14:20:00;3.0;3.0;
49686;PMS5003;36064;38.180;-122.272;2023-06-10T14:25:00;2.6;2.6;
49686;PMS5003;36064;38.180;-122.272;2023-06-10T14:30:01;3.4;3.0;
49686;PMS5003;36064;38.180;-122.272;2023-06-10T14:35:00;3.0;2.6;
49686;PMS5003;36064;38.180;-122.272;2023-06-10T14:40:00;5.6;4.2;
49686;PMS5003;36064;38.180;-122.272;2023-06-10T14:45:00;4.6;3.8;
49686;PMS5003;36064;38.180;-122.272;2023-06-10T14:50:00;4.2;4.2;
49686;PMS5003;36064;38.180;-122.272;2023-06-10T14:55:00;2.8;2.8;
49686;PMS5003;36064;38.180;-122.272;2023-06-10T15:00:00;4.0;2.8;
49686;PMS5003;36064;38.180;-122.272;2023-06-10T15:05:00;4.0;4.0;
49686;PMS5003;36064;38.180;-122.272;2023-06-10T15:10:00;2.6;2.4;
49686;PMS5003;36064;38.180;-122.272;2023-06-10T15:15:00;3.2;2.6;
49686;PMS5003;36064;38.180;-122.272;2023-06-10T15:20:00;3.6;3.0;
49686;PMS5003;36064;38.180;-122.272;2023-06-10T15:25:00;2.2;2.2;
49686;PMS5003;36064;38.180;-122.272;2023-06-10T15:30:00;2.0;1.6;
49686;PMS5003;36064;38.180;-122.272;2023-06-10T15:35:00;2.2;1.8;
49686;PMS5003;36064;38.180;-122.272;2023-06-10T15:40:00;2.0;2.8;
49686;PMS5003;36064;38.180;-122.272;2023-06-10T15:45:00;3.2;2.8;
49686;PMS5003;36064;38.180;-122.272;2023-06-10T15:50:00;3.0;2.6;
49686;PMS5003;36064;38.180;-122.272;2023-06-10T15:55:00;4.4;3.2;
49686;PMS5003;36064;38.180;-122.272;2023-06-10T16:00:00;6.6;5.4;
49686;PMS5003;36064;38.180;-122.272;2023-06-10T16:05:00;7.0;7.0;
49686;PMS5003;36064;38.180;-122.272;2023-06-10T16:10:00;9.0;8.6;
49686;PMS5003;36064;38.180;-122.272;2023-06-10T16:15:00;6.6;6.6;
49686;PMS5003;36064;38.180;-122.272;2023-06-10T16:20:00;6.0;5.6;
49686;PMS5003;36064;38.180;-122.272;2023-06-10T16:25:00;5.2;5.0;
49686;PMS5003;36064;38.180;-122.272;2023-06-10T16:30:00;5.8;5.8;
49686;PMS5003;36064;38.180;-122.272;2023-06-10T16:35:00;6.0;5.8;
49686;PMS5003;36064;38.180;-122.272;2023-06-10T16:40:00;6.0;5.4;
49686;PMS5003;36064;38.180;-122.272;2023-06-10T16:45:00;7.6;6.8;
49686;PMS5003;36064;38.180;-122.272;2023-06-10T16:50:00;6.8;6.4;
49686;PMS5003;36064;38.180;-122.272;2023-06-10T16:55:00;7.0;6.8;
49686;PMS5003;36064;38.180;-122.272;2023-06-10T17:00:00;6.2;4.8;
49686;PMS5003;36064;38.180;-122.272;2023-06-10T17:05:00;6.0;5.6;
49686;PMS5003;36064;38.180;-122.272;2023-06-10T17:10:00;5.4;5.0;
49686;PMS5003;36064;38.180;-122.272;2023-06-10T17:15:00;2.8;2.4;
49686;PMS5003;36064;38.180;-122.272;2023-06-10T17:20:00;2.8;2.8;
49686;PMS5003;36064;38.180;-122.272;2023-06-10T17:25:00;1.4;1.4;
49686;PMS5003;36064;38.180;-122.272;2023-06-10T17:30:00;2.4;2.2;
49686;PMS5003;36064;38.180;-122.272;2023-06-10T17:35:00;3.0;3.4;
49686;PMS5003;36064;38.180;-122.272;2023-06-10T17:40:00;3.2;2.8;
49686;PMS5003;36064;38.180;-122.272;2023-06-10T17:45:00;2.6;2.6;
49686;PMS5003;36064;38.180;-122.272;2023-06-10T17:50:00;2.0;1.2;
49686;PMS5003;36064;38.180;-122.272;2023-06-10T17:55:00;1.2;1.2;
49686;PMS5003;36064;38.180;-122.272;2023-06-10T18:00:00;2.0;2.0;
49686;PMS5003;36064;38.180;-122.272;2023-06-10T18:05:00;3.2;2.4;
49686;PMS5003;36064;38.180;-122.272;2023-06-10T18:10:00;4.6;3.8;
49686;PMS5003;36064;38.180;-122.272;2023-06-10T18:15:00;2.4;2.4;
49686;PMS5003;36064;38.180;-122.272;2023-06-10T18:20:00;3.0;2.4;
49686;PMS5003;36064;38.180;-122.272;2023-06-10T18:25:00;4.2;4.2;
49686;PMS5003;36064;38.180;-122.272;2023-06-10T18:30:00;6.4;5.6;
49686;PMS5003;36064;38.180;-122.272;2023-06-10T18:35:00;3.2;5.0;
49686;PMS5003;36064;38.180;-122.272;2023-06-10T18:40:00;5.0;3.8;
49686;PMS5003;36064;38.180;-122.272;2023-06-10T18:45:00;2.8;2.8;
49686;PMS5003;36064;38.180;-122.272;2023-06-10T18:50:00;2.2;2.2;
49686;PMS5003;36064;38.180;-122.272;2023-06-10T18:55:00;2.8;3.0;
49686;PMS5003;36064;38.180;-122.272;2023-06-10T19:00:00;3.6;3.2;
49686;PMS5003;36064;38.180;-122.272;2023-06-10T19:05:00;2.4;2.4;
49686;PMS5003;36064;38.180;-122.272;2023-06-10T19:10:00;2.4;2.4;
49686;PMS5003;36064;38.180;-122.272;2023-06-10T19:15:00;1.8;1.8;
49686;PMS5003;36064;38.180;-122.272;2023-06-10T19:20:00;3.6;3.6;
49686;PMS5003;36064;38.180;-122.272;2023-06-10T19:25:00;2.6;2.2;
49686;PMS5003;36064;38.180;-122.272;2023-06-10T19:30:01;3.6;2.2;
49686;PMS5003;36064;38.180;-122.272;2023-06-10T19:35:00;3.2;3.2;
49686;PMS5003;36064;38.180;-122.272;2023-06-10T19:40:00;4.8;4.8;
49686;PMS5003;36064;38.180;-122.272;2023-06-10T19:45:01;2.4;2.4;
49686;PMS5003;36064;38.180;-122.272;2023-06-10T19:50:00;3.2;2.8;
49686;PMS5003;36064;38.180;-122.272;2023-06-10T19:55:00;7.0;7.0;
49686;PMS5003;36064;38.180;-122.272;2023-06-10T20:00:00;2.6;2.6;
49686;PMS5003;36064;38.180;-122.272;2023-06-10T20:05:00;5.4;4.0;
49686;PMS5003;36064;38.180;-122.272;2023-06-10T20:10:00;4.6;3.8;
49686;PMS5003;36064;38.180;-122.272;2023-06-10T20:15:00;3.2;3.2;
49686;PMS5003;36064;38.180;-122.272;2023-06-10T20:20:00;5.4;5.0;
49686;PMS5003;36064;38.180;-122.272;2023-06-10T20:25:00;4.0;4.0;
49686;PMS5003;36064;38.180;-122.272;2023-06-10T20:30:00;6.6;6.2;
49686;PMS5003;36064;38.180;-122.272;2023-06-10T20:35:00;5.0;5.0;
49686;PMS5003;36064;38.180;-122.272;2023-06-10T20:40:00;5.6;4.8;
49686;PMS5003;36064;38.180;-122.272;2023-06-10T20:45:00;3.8;3.6;
49686;PMS5003;36064;38.180;-122.272;2023-06-10T20:50:01;4.0;4.0;
49686;PMS5003;36064;38.180;-122.272;2023-06-10T20:55:00;4.2;4.0;
49686;PMS5003;36064;38.180;-122.272;2023-06-10T21:00:00;4.2;4.2;
49686;PMS5003;36064;38.180;-122.272;2023-06-10T21:05:00;4.6;4.6;
49686;PMS5003;36064;38.180;-122.272;2023-06-10T21:10:00;4.4;3.4;
49686;PMS5003;36064;38.180;-122.272;2023-06-10T21:15:00;5.4;3.8;
49686;PMS5003;36064;38.180;-122.272;2023-06-10T21:20:00;3.2;2.8;
49686;PMS5003;36064;38.180;-122.272;2023-06-10T21:25:00;3.2;2.4;
49686;PMS5003;36064;38.180;-122.272;2023-06-10T21:30:00;3.2;3.2;
49686;PMS5003;36064;38.180;-122.272;2023-06-10T21:35:00;4.8;4.8;
49686;PMS5003;36064;38.180;-122.272;2023-06-10T21:40:00;3.0;3.0;
49686;PMS5003;36064;38.180;-122.272;2023-06-10T21:45:00;3.6;3.0;
49686;PMS5003;36064;38.180;-122.272;2023-06-10T21:50:00;3.0;3.0;
49686;PMS5003;36064;38.180;-122.272;2023-06-10T21:55:00;3.4;2.8;
49686;PMS5003;36064;38.180;-122.272;2023-06-10T22:00:00;6.0;5.8;
49686;PMS5003;36064;38.180;-122.272;2023-06-10T22:05:00;2.2;2.0;
49686;PMS5003;36064;38.180;-122.272;2023-06-10T22:10:00;3.8;2.6;
49686;PMS5003;36064;38.180;-122.272;2023-06-10T22:15:00;3.2;2.4;
49686;PMS5003;36064;38.180;-122.272;2023-06-10T22:20:00;3.8;3.4;
49686;PMS5003;36064;38.180;-122.272;2023-06-10T22:25:00;8.0;6.6;
49686;PMS5003;36064;38.180;-122.272;2023-06-10T22:30:00;8.0;3.2;
49686;PMS5003;36064;38.180;-122.272;2023-06-10T22:35:01;4.0;3.2;
49686;PMS5003;36064;38.180;-122.272;2023-06-10T22:40:01;3.4;3.4;
49686;PMS5003;36064;38.180;-122.272;2023-06-10T22:45:00;4.8;4.6;
49686;PMS5003;36064;38.180;-122.272;2023-06-10T22:50:00;4.8;4.4;
49686;PMS5003;36064;38.180;-122.272;2023-06-10T22:55:00;3.2;2.4;
49686;PMS5003;36064;38.180;-122.272;2023-06-10T23:00:01;5.0;5.0;
49686;PMS5003;36064;38.180;-122.272;2023-06-10T23:05:00;3.6;2.8;
49686;PMS5003;36064;38.180;-122.272;2023-06-10T23:10:00;4.0;2.8;
49686;PMS5003;36064;38.180;-122.272;2023-06-10T23:15:01;5.0;3.2;
49686;PMS5003;36064;38.180;-122.272;2023-06-10T23:20:00;4.0;3.2;
49686;PMS5003;36064;38.180;-122.272;2023-06-10T23:25:00;4.6;3.0;
49686;PMS5003;36064;38.180;-122.272;2023-06-10T23:30:00;7.2;5.6;
49686;PMS5003;36064;38.180;-122.272;2023-06-10T23:35:01;4.0;4.0;
49686;PMS5003;36064;38.180;-122.272;2023-06-10T23:40:00;4.6;4.6;
49686;PMS5003;36064;38.180;-122.272;2023-06-10T23:45:01;3.4;2.6;
49686;PMS5003;36064;38.180;-122.272;2023-06-10T23:50:00;5.4;4.8;
49686;PMS5003;36064;38.180;-122.272;2023-06-10T23:55:00;3.2;3.2;
